French Island, Wisconsin
Current Conditions -  °F | °C
As of 11:53 AM on Thursday 30 Oct 2014 (Local Time) from KLSE Reporting Station
Overcast Overcast  
Wind Chill: 43°   Ceiling: 6000
Heat Index: 45°   Visibility: 10mi
Dew Point: 36°   Wind: 5mph
Humidity: 71%   Direction: 170°S
Pressure: 30.09"   Gusts: NA
Location:  43.8°N, 91.145°W
Report Text: KLSE 301653Z 17004KT 10SM OVC060 07/02 A3009 RMK AO2 SLP197 T00720022
Loading
Personal Weather Stations






























Interactive Weather Map
Tropical Storm Tracking
New forecast layout! Learn more

10-Day Weather Forecast

Advertisements
Track Severe Weather on mobile